F/V L Ocarina — FGRL — position and weather

sailwx.info

Track history (hours):
 
Tides and Currents Weather Stations Pressure Air Temp Water Temp Dewpoint Dewpoint Depression Visibility Wind Speed Wind Dir Waves Ship Positions

F/V L Ocarina

Last reported at 2017-Sep-26 09:01 UTC. Time now 2017-Sep-26 09:26 UTC.
Position N 47°45' W 005°14'.

Length 16 m.

Type: Fishing. MMSI: 228126000.

Date/timePositionNaut miles runAvg speedWind from/ knotsBaromVisibWave heightAir tempDewpointWater temp
2017-Sep-26 09:01N 47°45' W 005°14'2 3.4
2017-Sep-26 08:30N 47°47' W 005°13'2 2.6
2017-Sep-26 07:37N 47°49' W 005°14'0 3.3
2017-Sep-26 07:29N 47°49' W 005°14'2 3.3
2017-Sep-26 07:00N 47°48' W 005°12'1 1.9
2017-Sep-26 06:31N 47°48' W 005°12'2 3.4
2017-Sep-26 06:00N 47°48' W 005°15'2 3.6
2017-Sep-26 05:19N 47°46' W 005°17'1 2.0
2017-Sep-26 05:00N 47°46' W 005°17'2 3.2
2017-Sep-26 04:30N 47°45' W 005°15'2 3.2
2017-Sep-26 04:01N 47°45' W 005°12'1 2.8
2017-Sep-26 03:30N 47°45' W 005°10'1 2.8
2017-Sep-26 03:01N 47°47' W 005°11'2 3.2
2017-Sep-26 02:30N 47°48' W 005°13'0 0.5
2017-Sep-26 01:51N 47°47' W 005°13'1 3.4
2017-Sep-26 01:30N 47°47' W 005°11'2 3.4
2017-Sep-26 01:00N 47°45' W 005°10'2 3.0
2017-Sep-26 00:30N 47°44' W 005°09'2 3.0
2017-Sep-26 00:00N 47°42' W 005°10'2 3.1
2017-Sep-25 23:29N 47°41' W 005°11'2 3.2
2017-Sep-25 22:56N 47°41' W 005°14'3 3.5
2017-Sep-25 22:03N 47°41' W 005°18'2 2.7
2017-Sep-25 21:15N 47°40' W 005°20'1 2.7
2017-Sep-25 20:50N 47°39' W 005°20'2 2.7
2017-Sep-25 20:05N 47°37' W 005°22'1 3.4
2017-Sep-25 19:47N 47°37' W 005°23'1 3.7
2017-Sep-25 19:30N 47°38' W 005°24'6 3.3
2017-Sep-25 17:46N 47°43' W 005°21'1 2.9
2017-Sep-25 17:30N 47°43' W 005°20'6 2.7
2017-Sep-25 15:25N 47°48' W 005°14'1 3.5
2017-Sep-25 15:00N 47°47' W 005°12'2 3.6
2017-Sep-25 14:30N 47°47' W 005°09'1 2.9
2017-Sep-25 14:00N 47°48' W 005°08'2 3.1
2017-Sep-25 13:31N 47°48' W 005°10'3 3.8
2017-Sep-25 12:40N 47°49' W 005°14'2 2.0
2017-Sep-25 11:35N 47°47' W 005°13'0 2.9
2017-Sep-25 11:29N 47°47' W 005°12'1 2.8
2017-Sep-25 10:58N 47°46' W 005°11'2 2.2
2017-Sep-25 10:00N 47°44' W 005°09'2 2.8
2017-Sep-25 09:12N 47°42' W 005°10'1 2.8
2017-Sep-25 09:00N 47°42' W 005°09'3 3.0
2017-Sep-25 08:07N 47°40' W 005°06'0 3.0
2017-Sep-25 07:59N 47°40' W 005°06'0 0.8
2017-Sep-25 07:31N 47°40' W 005°05'2 3.7
2017-Sep-25 06:56N 47°42' W 005°07'2 3.6
2017-Sep-25 06:26N 47°44' W 005°07'3 3.2
2017-Sep-25 05:25N 47°42' W 005°03'1 3.5
2017-Sep-25 05:01N 47°41' W 005°02'3 3.3
2017-Sep-25 04:06N 47°40' W 004°57'0 3.4
2017-Sep-25 03:59N 47°40' W 004°57'7 6.3
2017-Sep-25 02:47N 47°42' W 004°46'18 8.3
2017-Sep-25 00:38N 47°46' W 004°20'3 0.1
2017-Sep-24 03:31N 47°48' W 004°17'0 0.0
2017-Sep-24 02:54N 47°48' W 004°17'0 0.0
2017-Sep-24 02:28N 47°48' W 004°17'1 0.0
2017-Sep-22 01:38N 47°47' W 004°18'34 3.1
2017-Sep-21 14:41N 47°44' W 005°07'1 3.0
2017-Sep-21 14:27N 47°44' W 005°08'5 0.4
2017-Sep-21 03:33N 47°40' W 005°06'0 3.2
2017-Sep-21 03:30N 47°40' W 005°06'3 1.7
2017-Sep-21 01:40N 47°37' W 005°04'0 2.9
2017-Sep-21 01:30N 47°37' W 005°04'2 2.6
2017-Sep-21 00:48N 47°39' W 005°06'2 2.6
2017-Sep-21 00:07N 47°40' W 005°06'0 2.6
2017-Sep-20 23:57N 47°41' W 005°06'3 2.8
2017-Sep-20 22:45N 47°44' W 005°08'1 3.6
2017-Sep-20 22:30N 47°45' W 005°08'2 2.5
2017-Sep-20 21:50N 47°46' W 005°07'1 3.4
2017-Sep-20 21:30N 47°47' W 005°06'5 0.7
2017-Sep-20 13:45N 47°48' W 005°14'1 0.1
2017-Sep-20 07:25N 47°48' W 005°15'4 2.6
2017-Sep-20 05:40N 47°48' W 005°08'1 1.7
2017-Sep-20 05:20N 47°48' W 005°08'2 2.6
2017-Sep-20 04:33N 47°46' W 005°07'3 3.1
2017-Sep-20 03:43N 47°43' W 005°07'4 3.4
2017-Sep-20 02:34N 47°40' W 005°05'0 3.1
2017-Sep-20 02:29N 47°40' W 005°05'2 3.2
2017-Sep-20 02:00N 47°40' W 005°03'4 3.6
2017-Sep-20 00:52N 47°38' W 004°57'3 7.7
2017-Sep-20 00:30N 47°39' W 004°53'4 8.1
2017-Sep-20 00:00N 47°40' W 004°47'17 1.3
2017-Sep-19 11:38N 47°44' W 004°23'31 1.5
2017-Sep-18 14:35N 47°48' W 005°09'0 3.5
2017-Sep-18 14:28N 47°48' W 005°08'1 0.1
2017-Sep-18 05:27N 47°47' W 005°08'1 0.2
2017-Sep-17 21:22N 47°47' W 005°06'1 3.1
2017-Sep-17 20:56N 47°48' W 005°08'4 0.3
2017-Sep-17 06:22N 47°45' W 005°04'3 7.3
2017-Sep-17 05:56N 47°45' W 004°59'28 6.6
2017-Sep-17 01:38N 47°48' W 004°17'  
Track history (hours):
 
Tides and Currents Weather Stations Pressure Air Temp Water Temp Dewpoint Dewpoint Depression Visibility Wind Speed Wind Dir Waves Ship Positions

F/V L Ocarina

Last reported at 2017-Sep-26 09:01 UTC. Time now 2017-Sep-26 09:26 UTC.
Position N 47°45' W 005°14'.

Length 16 m.

Type: Fishing. MMSI: 228126000.

Date/timePositionNaut miles runAvg speedWind from/ knotsBaromVisibWave heightAir tempDewpointWater temp
2017-Sep-26 09:01N 47°45' W 005°14'2 3.4
2017-Sep-26 08:30N 47°47' W 005°13'2 2.6
2017-Sep-26 07:37N 47°49' W 005°14'0 3.3
2017-Sep-26 07:29N 47°49' W 005°14'2 3.3
2017-Sep-26 07:00N 47°48' W 005°12'1 1.9
2017-Sep-26 06:31N 47°48' W 005°12'2 3.4
2017-Sep-26 06:00N 47°48' W 005°15'2 3.6
2017-Sep-26 05:19N 47°46' W 005°17'1 2.0
2017-Sep-26 05:00N 47°46' W 005°17'2 3.2
2017-Sep-26 04:30N 47°45' W 005°15'2 3.2
2017-Sep-26 04:01N 47°45' W 005°12'1 2.8
2017-Sep-26 03:30N 47°45' W 005°10'1 2.8
2017-Sep-26 03:01N 47°47' W 005°11'2 3.2
2017-Sep-26 02:30N 47°48' W 005°13'0 0.5
2017-Sep-26 01:51N 47°47' W 005°13'1 3.4
2017-Sep-26 01:30N 47°47' W 005°11'2 3.4
2017-Sep-26 01:00N 47°45' W 005°10'2 3.0
2017-Sep-26 00:30N 47°44' W 005°09'2 3.0
2017-Sep-26 00:00N 47°42' W 005°10'2 3.1
2017-Sep-25 23:29N 47°41' W 005°11'2 3.2
2017-Sep-25 22:56N 47°41' W 005°14'3 3.5
2017-Sep-25 22:03N 47°41' W 005°18'2 2.7
2017-Sep-25 21:15N 47°40' W 005°20'1 2.7
2017-Sep-25 20:50N 47°39' W 005°20'2 2.7
2017-Sep-25 20:05N 47°37' W 005°22'1 3.4
2017-Sep-25 19:47N 47°37' W 005°23'1 3.7
2017-Sep-25 19:30N 47°38' W 005°24'6 3.3
2017-Sep-25 17:46N 47°43' W 005°21'1 2.9
2017-Sep-25 17:30N 47°43' W 005°20'6 2.7
2017-Sep-25 15:25N 47°48' W 005°14'1 3.5
2017-Sep-25 15:00N 47°47' W 005°12'2 3.6
2017-Sep-25 14:30N 47°47' W 005°09'1 2.9
2017-Sep-25 14:00N 47°48' W 005°08'2 3.1
2017-Sep-25 13:31N 47°48' W 005°10'3 3.8
2017-Sep-25 12:40N 47°49' W 005°14'2 2.0
2017-Sep-25 11:35N 47°47' W 005°13'0 2.9
2017-Sep-25 11:29N 47°47' W 005°12'1 2.8
2017-Sep-25 10:58N 47°46' W 005°11'2 2.2
2017-Sep-25 10:00N 47°44' W 005°09'2 2.8
2017-Sep-25 09:12N 47°42' W 005°10'1 2.8
2017-Sep-25 09:00N 47°42' W 005°09'3 3.0
2017-Sep-25 08:07N 47°40' W 005°06'0 3.0
2017-Sep-25 07:59N 47°40' W 005°06'0 0.8
2017-Sep-25 07:31N 47°40' W 005°05'2 3.7
2017-Sep-25 06:56N 47°42' W 005°07'2 3.6
2017-Sep-25 06:26N 47°44' W 005°07'3 3.2
2017-Sep-25 05:25N 47°42' W 005°03'1 3.5
2017-Sep-25 05:01N 47°41' W 005°02'3 3.3
2017-Sep-25 04:06N 47°40' W 004°57'0 3.4
2017-Sep-25 03:59N 47°40' W 004°57'7 6.3
2017-Sep-25 02:47N 47°42' W 004°46'18 8.3
2017-Sep-25 00:38N 47°46' W 004°20'3 0.1
2017-Sep-24 03:31N 47°48' W 004°17'0 0.0
2017-Sep-24 02:54N 47°48' W 004°17'0 0.0
2017-Sep-24 02:28N 47°48' W 004°17'1 0.0
2017-Sep-22 01:38N 47°47' W 004°18'34 3.1
2017-Sep-21 14:41N 47°44' W 005°07'1 3.0
2017-Sep-21 14:27N 47°44' W 005°08'5 0.4
2017-Sep-21 03:33N 47°40' W 005°06'0 3.2
2017-Sep-21 03:30N 47°40' W 005°06'3 1.7
2017-Sep-21 01:40N 47°37' W 005°04'0 2.9
2017-Sep-21 01:30N 47°37' W 005°04'2 2.6
2017-Sep-21 00:48N 47°39' W 005°06'2 2.6
2017-Sep-21 00:07N 47°40' W 005°06'0 2.6
2017-Sep-20 23:57N 47°41' W 005°06'3 2.8
2017-Sep-20 22:45N 47°44' W 005°08'1 3.6
2017-Sep-20 22:30N 47°45' W 005°08'2 2.5
2017-Sep-20 21:50N 47°46' W 005°07'1 3.4
2017-Sep-20 21:30N 47°47' W 005°06'5 0.7
2017-Sep-20 13:45N 47°48' W 005°14'1 0.1
2017-Sep-20 07:25N 47°48' W 005°15'4 2.6
2017-Sep-20 05:40N 47°48' W 005°08'1 1.7
2017-Sep-20 05:20N 47°48' W 005°08'2 2.6
2017-Sep-20 04:33N 47°46' W 005°07'3 3.1
2017-Sep-20 03:43N 47°43' W 005°07'4 3.4
2017-Sep-20 02:34N 47°40' W 005°05'0 3.1
2017-Sep-20 02:29N 47°40' W 005°05'2 3.2
2017-Sep-20 02:00N 47°40' W 005°03'4 3.6
2017-Sep-20 00:52N 47°38' W 004°57'3 7.7
2017-Sep-20 00:30N 47°39' W 004°53'4 8.1
2017-Sep-20 00:00N 47°40' W 004°47'17 1.3
2017-Sep-19 11:38N 47°44' W 004°23'31 1.5
2017-Sep-18 14:35N 47°48' W 005°09'0 3.5
2017-Sep-18 14:28N 47°48' W 005°08'1 0.1
2017-Sep-18 05:27N 47°47' W 005°08'1 0.2
2017-Sep-17 21:22N 47°47' W 005°06'1 3.1
2017-Sep-17 20:56N 47°48' W 005°08'4 0.3
2017-Sep-17 06:22N 47°45' W 005°04'3 7.3
2017-Sep-17 05:56N 47°45' W 004°59'28 6.6
2017-Sep-17 01:38N 47°48' W 004°17'  

Dump ship's entire track history